createdAt,value
2024-05-09T00:00:36.257Z,6.40
2024-05-09T00:03:08.244Z,4.93
2024-05-09T00:05:36.653Z,5.72
2024-05-09T00:08:04.084Z,6.00
2024-05-09T00:10:36.342Z,6.25
2024-05-09T00:13:09.341Z,5.20
2024-05-09T00:15:36.862Z,6.30
2024-05-09T00:18:05.442Z,6.78
2024-05-09T00:20:38.130Z,7.33
2024-05-09T00:23:13.823Z,5.25
2024-05-09T00:25:43.052Z,5.93
2024-05-09T00:28:11.521Z,5.88
2024-05-09T00:30:38.233Z,5.93
2024-05-09T00:33:09.606Z,6.93
2024-05-09T00:35:37.557Z,7.10
2024-05-09T00:38:04.841Z,4.70
2024-05-09T00:40:43.258Z,5.30
2024-05-09T00:43:12.531Z,5.25
2024-05-09T00:45:40.328Z,5.50
2024-05-09T00:48:09.379Z,5.07
2024-05-09T00:50:39.751Z,5.35
2024-05-09T00:53:08.188Z,6.60
2024-05-09T00:55:37.224Z,5.88
2024-05-09T00:58:07.502Z,5.67
2024-05-09T01:00:39.103Z,5.72
2024-05-09T01:03:12.553Z,5.18
2024-05-09T01:05:41.062Z,6.07
2024-05-09T01:08:09.019Z,4.32
2024-05-09T01:10:41.715Z,7.60
2024-05-09T01:13:10.724Z,6.07
2024-05-09T01:15:37.353Z,6.43
2024-05-09T01:18:07.796Z,6.65
2024-05-09T01:20:41.979Z,6.60
2024-05-09T01:23:12.409Z,7.17
2024-05-09T01:25:39.939Z,8.60
2024-05-09T01:28:07.142Z,7.65
2024-05-09T01:30:36.326Z,6.63
2024-05-09T01:33:09.866Z,7.15
2024-05-09T01:35:39.210Z,9.68
2024-05-09T01:38:06.992Z,5.47
2024-05-09T01:40:38.498Z,5.18
2024-05-09T01:43:10.983Z,5.20
2024-05-09T01:45:39.504Z,4.85
2024-05-09T01:48:07.875Z,5.15
2024-05-09T01:50:39.599Z,5.28
2024-05-09T01:53:15.089Z,6.32
2024-05-09T01:55:42.494Z,8.52
2024-05-09T01:58:09.591Z,5.90
2024-05-09T02:00:40.629Z,8.98
2024-05-09T02:03:12.715Z,6.70
2024-05-09T02:05:42.858Z,6.57
2024-05-09T02:08:17.006Z,5.75
2024-05-09T02:10:44.700Z,6.45
2024-05-09T02:13:11.637Z,5.68
2024-05-09T02:15:38.362Z,5.07
2024-05-09T02:18:05.715Z,5.80
2024-05-09T02:20:36.114Z,5.15
2024-05-09T02:23:06.214Z,5.93
2024-05-09T02:25:33.409Z,5.80
2024-05-09T02:28:00.136Z,4.57
2024-05-09T02:30:36.563Z,6.05
2024-05-09T02:33:08.066Z,6.32
2024-05-09T02:35:35.507Z,7.07
2024-05-09T02:38:02.322Z,6.90
2024-05-09T02:40:36.494Z,4.90
2024-05-09T02:43:10.019Z,7.70
2024-05-09T02:45:38.098Z,6.32
2024-05-09T02:48:05.502Z,5.57
2024-05-09T02:50:37.978Z,6.25
2024-05-09T02:53:10.823Z,5.85
2024-05-09T02:55:38.266Z,5.50
2024-05-09T02:58:07.247Z,7.10
2024-05-09T03:00:38.915Z,7.28
2024-05-09T03:03:09.561Z,7.80
2024-05-09T03:05:38.179Z,4.93
2024-05-09T03:08:05.438Z,6.20
2024-05-09T03:10:36.265Z,5.15
2024-05-09T03:13:13.527Z,6.30
2024-05-09T03:15:41.634Z,7.60
2024-05-09T03:18:08.819Z,5.75
2024-05-09T03:20:36.822Z,5.90
2024-05-09T03:23:09.329Z,6.25
2024-05-09T03:25:37.188Z,9.63
2024-05-09T03:28:04.081Z,6.72
2024-05-09T03:30:39.510Z,6.55
2024-05-09T03:33:15.670Z,6.30
2024-05-09T03:35:43.958Z,6.47
2024-05-09T03:38:10.839Z,6.97
2024-05-09T03:40:50.535Z,7.13
2024-05-09T03:43:18.847Z,8.32
2024-05-09T03:45:46.562Z,7.65
2024-05-09T03:48:13.512Z,5.30
2024-05-09T03:50:40.453Z,5.25
2024-05-09T03:53:10.458Z,7.07
2024-05-09T03:55:37.244Z,8.25
2024-05-09T03:58:04.023Z,10.70
2024-05-09T04:00:37.368Z,8.18
2024-05-09T04:03:08.729Z,8.70
2024-05-09T04:05:39.688Z,10.50
2024-05-09T04:08:07.044Z,8.30
2024-05-09T04:10:35.024Z,8.95
2024-05-09T04:13:03.172Z,7.75
2024-05-09T04:15:30.377Z,8.05
2024-05-09T04:17:57.260Z,7.50
2024-05-09T04:20:33.689Z,7.90
2024-05-09T04:23:06.698Z,7.38
2024-05-09T04:25:33.700Z,8.38
2024-05-09T04:28:00.506Z,7.93
2024-05-09T04:30:36.080Z,7.88
2024-05-09T04:33:07.485Z,8.40
2024-05-09T04:35:35.702Z,8.50
2024-05-09T04:38:02.736Z,8.57
2024-05-09T04:40:34.128Z,9.13
2024-05-09T04:43:03.976Z,9.82
2024-05-09T04:45:30.860Z,8.00
2024-05-09T04:47:58.246Z,8.40
2024-05-09T04:50:33.457Z,6.00
2024-05-09T04:53:04.369Z,8.85
2024-05-09T04:55:31.686Z,6.55
2024-05-09T04:57:58.457Z,8.05
2024-05-09T05:00:34.157Z,9.38
2024-05-09T05:03:08.475Z,9.02
2024-05-09T05:05:40.322Z,7.35
2024-05-09T05:08:18.512Z,7.57
2024-05-09T05:10:46.621Z,8.00
2024-05-09T05:13:20.810Z,8.18
2024-05-09T05:15:55.759Z,8.18
2024-05-09T05:18:23.941Z,9.00
2024-05-09T05:20:50.894Z,12.35
2024-05-09T05:23:22.183Z,10.98
2024-05-09T05:25:50.559Z,9.30
2024-05-09T05:28:17.771Z,9.60
2024-05-09T05:30:44.576Z,8.32
2024-05-09T05:33:15.712Z,10.70
2024-05-09T05:35:42.809Z,10.23
2024-05-09T05:38:11.103Z,7.57
2024-05-09T05:40:39.241Z,10.43
2024-05-09T05:43:11.093Z,10.27
2024-05-09T05:45:38.430Z,11.35
2024-05-09T05:48:06.945Z,9.60
2024-05-09T05:50:37.177Z,11.57
2024-05-09T05:53:07.925Z,12.93
2024-05-09T05:55:39.392Z,13.88
2024-05-09T05:58:10.576Z,15.23
2024-05-09T06:00:39.476Z,16.42
2024-05-09T06:03:09.296Z,14.93
2024-05-09T06:05:37.430Z,14.27
2024-05-09T06:08:04.730Z,15.10
2024-05-09T06:10:38.001Z,17.50
2024-05-09T06:13:07.214Z,18.17
2024-05-09T06:15:34.010Z,21.65
2024-05-09T06:18:00.914Z,20.60
2024-05-09T06:20:35.223Z,18.90
2024-05-09T06:23:05.348Z,19.47
2024-05-09T06:25:32.401Z,18.30
2024-05-09T06:28:02.329Z,19.40
2024-05-09T06:30:37.557Z,18.67
2024-05-09T06:33:07.860Z,19.40
2024-05-09T06:35:35.279Z,18.43
2024-05-09T06:38:02.485Z,19.35
2024-05-09T06:40:36.381Z,19.65
2024-05-09T06:43:10.863Z,16.77
2024-05-09T06:45:39.615Z,18.90
2024-05-09T06:48:07.339Z,17.60
2024-05-09T06:50:37.865Z,26.08
2024-05-09T06:53:06.262Z,17.67
2024-05-09T06:55:33.172Z,16.88
2024-05-09T06:57:59.894Z,16.73
2024-05-09T07:00:35.076Z,15.83
2024-05-09T07:03:17.918Z,16.48
2024-05-09T07:05:47.209Z,17.95
2024-05-09T07:08:15.233Z,16.67
2024-05-09T07:10:42.177Z,16.67
2024-05-09T07:13:13.327Z,19.03
2024-05-09T07:15:41.614Z,17.92
2024-05-09T07:18:10.206Z,17.13
2024-05-09T07:20:37.069Z,16.08
2024-05-09T07:23:03.895Z,16.65
2024-05-09T07:25:30.744Z,13.83
2024-05-09T07:27:57.632Z,14.02
2024-05-09T07:30:32.606Z,16.77
2024-05-09T07:33:01.828Z,16.35
2024-05-09T07:35:29.485Z,12.70
2024-05-09T07:37:56.326Z,15.67
2024-05-09T07:40:32.227Z,11.70
2024-05-09T07:43:08.308Z,12.73
2024-05-09T07:52:32.528Z,14.10
2024-05-09T07:53:39.647Z,11.93
2024-05-09T07:56:11.720Z,15.77
2024-05-09T07:58:39.416Z,14.02
2024-05-09T08:01:06.557Z,15.82
2024-05-09T08:03:33.544Z,14.07
2024-05-09T08:06:00.493Z,12.80
2024-05-09T08:08:27.139Z,10.95
2024-05-09T08:10:53.901Z,9.45
2024-05-09T08:13:20.753Z,11.45
2024-05-09T08:15:47.489Z,11.70
2024-05-09T08:18:14.343Z,12.05
2024-05-09T08:20:42.251Z,10.32
2024-05-09T08:23:08.978Z,10.52
2024-05-09T08:25:35.635Z,10.07
2024-05-09T08:28:04.485Z,9.27
2024-05-09T08:30:36.701Z,9.18
2024-05-09T08:33:05.970Z,10.82
2024-05-09T08:35:33.681Z,10.57
2024-05-09T08:38:02.576Z,10.20
2024-05-09T08:40:34.599Z,10.03
2024-05-09T08:43:11.328Z,12.30
2024-05-09T08:45:44.330Z,12.77
2024-05-09T08:48:14.134Z,10.52
2024-05-09T08:50:41.894Z,15.18
2024-05-09T08:53:09.253Z,10.27
2024-05-09T08:55:40.580Z,11.25
2024-05-09T08:58:14.257Z,11.63
2024-05-09T09:00:43.214Z,11.57
2024-05-09T09:03:15.136Z,10.05
2024-05-09T09:05:50.218Z,10.70
2024-05-09T09:08:17.241Z,11.40
2024-05-09T09:10:45.474Z,12.20
2024-05-09T09:13:12.324Z,9.98
2024-05-09T09:15:49.508Z,10.65
2024-05-09T09:18:17.325Z,10.60
2024-05-09T09:20:44.733Z,9.98
2024-05-09T09:23:11.466Z,11.00
2024-05-09T09:25:41.371Z,9.20
2024-05-09T09:28:08.681Z,8.70
2024-05-09T09:30:41.845Z,8.20
2024-05-09T09:33:10.340Z,10.68
2024-05-09T09:35:40.001Z,10.73
2024-05-09T09:38:07.688Z,10.45
2024-05-09T09:40:39.102Z,8.95
2024-05-09T09:43:14.674Z,9.77
2024-05-09T09:45:43.527Z,8.73
2024-05-09T09:48:12.184Z,9.75
2024-05-09T09:50:40.512Z,9.35
2024-05-09T09:53:07.505Z,10.57
2024-05-09T09:55:35.674Z,9.33
2024-05-09T09:58:04.443Z,9.27
2024-05-09T10:00:33.756Z,8.82
2024-05-09T10:03:01.804Z,8.85
2024-05-09T10:05:30.018Z,8.52
2024-05-09T10:07:58.727Z,8.80
2024-05-09T10:10:31.805Z,7.30
2024-05-09T10:13:07.263Z,9.52
2024-05-09T10:15:50.539Z,7.55
2024-05-09T10:18:17.763Z,6.63
2024-05-09T10:20:45.810Z,5.70
2024-05-09T10:23:24.112Z,7.63
2024-05-09T10:26:05.901Z,6.70
2024-05-09T10:28:35.314Z,5.95
2024-05-09T10:31:13.410Z,6.63
2024-05-09T10:33:46.115Z,6.07
2024-05-09T10:36:21.680Z,6.82
2024-05-09T10:38:49.723Z,9.52
2024-05-09T10:41:17.284Z,8.88
2024-05-09T10:43:43.986Z,9.38
2024-05-09T10:46:11.592Z,5.73
2024-05-09T10:48:39.829Z,7.95
2024-05-09T10:51:06.822Z,6.57
2024-05-09T10:53:44.565Z,7.35
2024-05-09T10:56:13.431Z,7.28
2024-05-09T10:58:40.149Z,9.03
2024-05-09T11:01:07.569Z,9.27
2024-05-09T11:03:35.629Z,8.50
2024-05-09T11:06:02.935Z,8.30
2024-05-09T11:08:32.089Z,7.47
2024-05-09T11:10:59.894Z,9.23
2024-05-09T11:13:34.498Z,8.40
2024-05-09T11:16:02.425Z,7.80
2024-05-09T11:18:33.814Z,7.05
2024-05-09T11:21:03.735Z,7.95
2024-05-09T11:23:31.035Z,11.57
2024-05-09T11:25:58.777Z,8.07
2024-05-09T11:28:28.245Z,6.95
2024-05-09T11:31:08.736Z,7.57
2024-05-09T11:33:40.219Z,7.68
2024-05-09T11:36:08.180Z,8.67
2024-05-09T11:38:35.199Z,8.32
2024-05-09T11:41:02.895Z,10.32
2024-05-09T11:43:29.553Z,10.30
2024-05-09T11:45:59.769Z,10.68
2024-05-09T11:48:27.034Z,9.07
2024-05-09T11:50:55.467Z,10.98
2024-05-09T11:53:22.403Z,12.40
2024-05-09T11:55:49.027Z,12.75
2024-05-09T11:58:18.051Z,10.18
2024-05-09T12:00:45.693Z,9.23
2024-05-09T12:03:12.672Z,9.05
2024-05-09T12:05:39.603Z,11.60
2024-05-09T12:08:06.974Z,10.57
2024-05-09T12:10:35.820Z,9.43
2024-05-09T12:13:05.709Z,8.60
2024-05-09T12:15:36.651Z,10.57
2024-05-09T12:18:04.792Z,12.73
2024-05-09T12:20:37.428Z,9.20
2024-05-09T12:23:07.516Z,8.05
2024-05-09T12:25:34.952Z,11.47
2024-05-09T12:28:01.930Z,9.07
2024-05-09T12:30:36.145Z,10.98
2024-05-09T12:33:10.327Z,12.00
2024-05-09T12:35:38.037Z,8.68
2024-05-09T12:38:05.073Z,9.03
2024-05-09T12:40:36.629Z,11.00
2024-05-09T12:43:07.451Z,10.82
2024-05-09T12:45:35.197Z,9.82
2024-05-09T12:48:02.097Z,10.30
2024-05-09T12:50:33.071Z,11.03
2024-05-09T12:53:02.384Z,9.45
2024-05-09T12:55:33.392Z,9.60
2024-05-09T12:58:04.812Z,9.38
2024-05-09T13:00:34.133Z,10.68
2024-05-09T13:03:01.653Z,10.33
2024-05-09T13:05:29.051Z,11.07
2024-05-09T13:07:56.859Z,10.25
2024-05-09T13:10:31.051Z,9.02
2024-05-09T13:13:00.170Z,10.30
2024-05-09T13:15:27.445Z,10.27
2024-05-09T13:17:56.387Z,10.20
2024-05-09T13:20:31.339Z,10.38
2024-05-09T13:23:01.951Z,9.73
2024-05-09T13:25:28.685Z,12.77
2024-05-09T13:27:56.261Z,12.97
2024-05-09T13:30:29.744Z,11.05
2024-05-09T13:33:06.077Z,11.68
2024-05-09T13:35:35.318Z,9.68
2024-05-09T13:38:03.356Z,10.93
2024-05-09T13:40:34.385Z,10.37
2024-05-09T13:43:04.368Z,13.52
2024-05-09T13:45:31.602Z,14.20
2024-05-09T13:47:59.062Z,9.43
2024-05-09T13:50:32.837Z,9.20
2024-05-09T13:53:02.528Z,9.37
2024-05-09T13:55:29.167Z,10.75
2024-05-09T13:57:56.358Z,8.88
2024-05-09T14:00:37.391Z,10.43
2024-05-09T14:03:10.061Z,15.35
2024-05-09T14:05:37.050Z,11.10
2024-05-09T14:08:04.204Z,9.82
2024-05-09T14:10:32.101Z,10.57
2024-05-09T14:13:00.271Z,10.30
2024-05-09T14:15:27.113Z,10.77
2024-05-09T14:17:55.055Z,13.10
2024-05-09T14:22:51.422Z,12.23
2024-05-09T14:25:18.351Z,9.55
2024-05-09T14:27:45.233Z,11.02
2024-05-09T14:30:18.599Z,12.23
2024-05-09T14:32:53.223Z,10.63
2024-05-09T14:35:20.076Z,11.82
2024-05-09T14:37:46.841Z,12.13
2024-05-09T14:40:30.375Z,11.38
2024-05-09T14:43:03.212Z,11.30
2024-05-09T14:45:30.191Z,12.05
2024-05-09T14:47:57.312Z,10.63
2024-05-09T14:50:32.558Z,11.57
2024-05-09T14:53:03.644Z,10.98
2024-05-09T14:55:30.399Z,10.83
2024-05-09T14:57:57.409Z,11.93
2024-05-09T15:00:28.947Z,9.50
2024-05-09T15:03:00.736Z,12.20
2024-05-09T15:05:27.644Z,11.27
2024-05-09T15:07:56.967Z,10.73
2024-05-09T15:10:31.556Z,9.55
2024-05-09T15:13:02.021Z,11.50
2024-05-09T15:15:28.681Z,9.43
2024-05-09T15:17:55.847Z,12.43
2024-05-09T15:20:31.039Z,11.13
2024-05-09T15:23:02.048Z,9.98
2024-05-09T15:25:28.965Z,11.70
2024-05-09T15:27:55.980Z,11.27
2024-05-09T15:32:52.446Z,11.20
2024-05-09T15:35:20.460Z,13.63
2024-05-09T15:37:48.508Z,11.43
2024-05-09T15:40:22.316Z,11.13
2024-05-09T15:42:57.851Z,11.10
2024-05-09T15:45:24.547Z,10.37
2024-05-09T15:47:51.227Z,10.50
2024-05-09T15:50:27.683Z,11.15
2024-05-09T15:52:59.275Z,10.85
2024-05-09T15:55:26.225Z,10.93
2024-05-09T15:57:52.924Z,12.37
2024-05-09T16:00:28.443Z,12.20
2024-05-09T16:03:01.085Z,12.55
2024-05-09T16:05:28.132Z,11.93
2024-05-09T16:07:55.087Z,10.65
2024-05-09T16:10:25.994Z,13.13
2024-05-09T16:12:58.808Z,11.93
2024-05-09T16:15:25.586Z,11.65
2024-05-09T16:17:52.343Z,13.25
2024-05-09T16:20:29.867Z,15.60
2024-05-09T16:23:05.039Z,14.37
2024-05-09T16:25:31.761Z,15.88
2024-05-09T16:27:58.542Z,13.73
2024-05-09T16:30:31.968Z,15.93
2024-05-09T16:33:02.417Z,15.57
2024-05-09T16:35:29.505Z,13.43
2024-05-09T16:37:56.356Z,15.20
2024-05-09T16:40:30.329Z,16.40
2024-05-09T16:43:04.978Z,16.73
2024-05-09T16:45:32.069Z,16.67
2024-05-09T16:47:59.743Z,17.47
2024-05-09T16:50:32.402Z,14.77
2024-05-09T16:53:01.803Z,12.70
2024-05-09T16:55:28.694Z,18.60
2024-05-09T16:57:56.325Z,17.52
2024-05-09T17:00:34.829Z,16.53
2024-05-09T17:03:07.930Z,20.98
2024-05-09T17:05:35.427Z,19.33
2024-05-09T17:08:03.115Z,18.25
2024-05-09T17:10:33.451Z,17.77
2024-05-09T17:13:06.382Z,17.87
2024-05-09T17:15:34.912Z,17.30
2024-05-09T17:18:02.367Z,24.52
2024-05-09T17:20:34.066Z,18.15
2024-05-09T17:23:04.842Z,18.92
2024-05-09T17:25:32.371Z,19.73
2024-05-09T17:28:07.340Z,20.38
2024-05-09T17:30:37.700Z,19.83
2024-05-09T17:33:08.512Z,18.15
2024-05-09T17:35:36.718Z,18.15
2024-05-09T17:38:05.002Z,18.50
2024-05-09T17:40:35.739Z,20.35
2024-05-09T17:43:05.388Z,19.52
2024-05-09T17:45:33.206Z,19.35
2024-05-09T17:48:00.825Z,19.05
2024-05-09T17:50:34.945Z,16.43
2024-05-09T17:53:04.008Z,20.15
2024-05-09T17:55:30.784Z,20.58
2024-05-09T17:57:57.810Z,19.25
2024-05-09T18:00:36.223Z,20.80
2024-05-09T18:03:07.026Z,21.00
2024-05-09T18:05:36.391Z,20.50
2024-05-09T18:08:04.038Z,20.20
2024-05-09T18:10:36.640Z,20.58
2024-05-09T18:13:07.158Z,19.02
2024-05-09T18:15:34.414Z,20.23
2024-05-09T18:18:02.265Z,20.10
2024-05-09T18:20:38.041Z,21.58
2024-05-09T18:23:10.626Z,21.00
2024-05-09T18:25:37.381Z,21.02
2024-05-09T18:28:04.564Z,20.67
2024-05-09T18:30:34.612Z,19.42
2024-05-09T18:33:03.818Z,19.75
2024-05-09T18:35:30.845Z,18.83
2024-05-09T18:37:57.606Z,19.98
2024-05-09T18:40:32.557Z,20.37
2024-05-09T18:43:03.363Z,20.58
2024-05-09T18:45:30.584Z,21.10
2024-05-09T18:47:57.566Z,20.70
2024-05-09T18:50:33.729Z,22.42
2024-05-09T18:53:05.994Z,19.87
2024-05-09T18:55:32.864Z,19.67
2024-05-09T18:57:59.618Z,20.15
2024-05-09T19:00:33.647Z,19.85
2024-05-09T19:03:05.892Z,20.77
2024-05-09T19:05:35.287Z,22.47
2024-05-09T19:08:03.412Z,20.15
2024-05-09T19:10:34.340Z,20.50
2024-05-09T19:13:06.489Z,19.92
2024-05-09T19:15:37.199Z,19.30
2024-05-09T19:18:04.269Z,19.80
2024-05-09T19:20:34.793Z,18.02
2024-05-09T19:23:03.103Z,21.05
2024-05-09T19:25:29.940Z,19.90
2024-05-09T19:27:56.742Z,19.55
2024-05-09T19:30:30.505Z,17.27
2024-05-09T19:33:05.693Z,18.05
2024-05-09T19:35:32.625Z,13.45
2024-05-09T19:37:59.528Z,14.07
2024-05-09T19:40:31.376Z,16.73
2024-05-09T19:43:01.560Z,16.53
2024-05-09T19:45:29.003Z,16.98
2024-05-09T19:47:56.388Z,14.65
2024-05-09T19:50:31.918Z,16.27
2024-05-09T19:53:06.362Z,15.18
2024-05-09T19:55:33.454Z,18.50
2024-05-09T19:58:04.746Z,16.92
2024-05-09T20:00:38.547Z,18.95
2024-05-09T20:03:08.014Z,15.77
2024-05-09T20:05:35.455Z,17.65
2024-05-09T20:08:02.539Z,14.83
2024-05-09T20:10:32.725Z,17.45
2024-05-09T20:13:01.866Z,15.85
2024-05-09T20:15:29.225Z,15.82
2024-05-09T20:17:56.222Z,16.75
2024-05-09T20:20:33.084Z,18.60
2024-05-09T20:23:06.238Z,17.00
2024-05-09T20:25:33.052Z,17.80
2024-05-09T20:27:59.902Z,16.38
2024-05-09T20:30:32.009Z,20.33
2024-05-09T20:33:02.991Z,21.30
2024-05-09T20:35:33.100Z,20.02
2024-05-09T20:38:01.503Z,22.15
2024-05-09T20:40:33.238Z,18.77
2024-05-09T20:43:03.863Z,22.48
2024-05-09T20:45:30.640Z,20.77
2024-05-09T20:47:57.715Z,18.98
2024-05-09T20:50:35.446Z,20.42
2024-05-09T20:53:14.532Z,18.63
2024-05-09T20:55:45.468Z,19.88
2024-05-09T20:58:12.878Z,18.70
2024-05-09T21:00:43.267Z,20.67
2024-05-09T21:03:12.835Z,20.02
2024-05-09T21:05:40.435Z,21.40
2024-05-09T21:08:07.706Z,18.83
2024-05-09T21:10:35.735Z,19.40
2024-05-09T21:13:03.603Z,18.65
2024-05-09T21:15:31.474Z,17.48
2024-05-09T21:17:58.613Z,19.25
2024-05-09T21:20:31.100Z,20.52
2024-05-09T21:22:59.276Z,22.03
2024-05-09T21:25:26.021Z,20.27
2024-05-09T21:27:53.055Z,23.77
2024-05-09T21:30:31.417Z,20.25
2024-05-09T21:33:05.876Z,16.63
2024-05-09T21:35:33.158Z,18.03
2024-05-09T21:37:59.906Z,19.55
2024-05-09T21:40:33.696Z,20.50
2024-05-09T21:43:02.388Z,20.38
2024-05-09T21:45:29.402Z,18.10
2024-05-09T21:47:56.171Z,20.10
2024-05-09T21:50:28.694Z,19.08
2024-05-09T21:53:03.250Z,19.38
2024-05-09T21:55:30.247Z,22.27
2024-05-09T21:57:57.218Z,19.98
2024-05-09T22:00:32.090Z,22.67
2024-05-09T22:03:03.511Z,19.02
2024-05-09T22:05:30.714Z,20.42
2024-05-09T22:07:57.541Z,22.50
2024-05-09T22:10:30.610Z,23.10
2024-05-09T22:13:01.051Z,19.97
2024-05-09T22:15:27.977Z,21.23
2024-05-09T22:17:56.201Z,22.08
2024-05-09T22:20:32.833Z,20.67
2024-05-09T22:23:04.085Z,22.65
2024-05-09T22:25:31.952Z,22.37
2024-05-09T22:27:59.423Z,22.85
2024-05-09T22:30:34.392Z,24.42
2024-05-09T22:33:05.964Z,23.13
2024-05-09T22:35:33.043Z,21.13
2024-05-09T22:37:59.877Z,18.93
2024-05-09T22:40:38.185Z,18.95
2024-05-09T22:43:13.093Z,18.85
2024-05-09T22:45:40.002Z,18.60
2024-05-09T22:48:08.271Z,16.52
2024-05-09T22:50:35.111Z,14.03
2024-05-09T22:53:01.872Z,16.30
2024-05-09T22:55:28.818Z,15.13
2024-05-09T22:57:55.704Z,20.98
2024-05-09T23:00:30.894Z,19.88
2024-05-09T23:03:00.261Z,25.63
2024-05-09T23:05:27.337Z,19.02
2024-05-09T23:07:54.201Z,20.05
2024-05-09T23:10:27.289Z,21.33
2024-05-09T23:12:58.878Z,20.88
2024-05-09T23:15:25.610Z,19.30
2024-05-09T23:17:52.576Z,19.33
2024-05-09T23:20:29.807Z,21.27
2024-05-09T23:23:03.521Z,16.45
2024-05-09T23:25:30.277Z,20.75
2024-05-09T23:27:57.110Z,18.00
2024-05-09T23:30:33.313Z,19.15
2024-05-09T23:33:05.158Z,24.10
2024-05-09T23:35:31.927Z,22.58
2024-05-09T23:37:58.609Z,22.27
2024-05-09T23:40:36.725Z,25.90
2024-05-09T23:43:07.428Z,22.27
2024-05-09T23:45:34.576Z,25.70
2024-05-09T23:48:01.709Z,18.35
2024-05-09T23:50:35.793Z,16.55
2024-05-09T23:53:05.861Z,23.17
2024-05-09T23:55:32.991Z,22.08
2024-05-09T23:58:00.226Z,20.27
